Time;durP1;ratioP1;P1;durP2;ratioP2;P2;SDS_P1;SDS_P2;PMS_P1;PMS_P2;Temp;Humidity;BMP_temperature;BMP_pressure;BME280_temperature;BME280_humidity;BME280_pressure;Samples;Min_cycle;Max_cycle;Signal;HPM_P1;HPM_P2
2023/04/08 00:00:12;;;;;;;13.05;7.45;;;;;;;9.92;43.87;99919.03;3163479;28;20104;-62
2023/04/08 00:01:44;;;;;;;11.02;7.35;;;;;;;9.90;43.89;99920.81;3165143;28;20579;-62
2023/04/08 00:03:16;;;;;;;12.20;6.75;;;;;;;9.89;44.17;99921.75;3165583;28;20058;-62
2023/04/08 00:05:07;;;;;;;11.00;7.43;;;;;;;9.88;43.97;99925.22;3166148;28;20055;-62
2023/04/08 00:06:38;;;;;;;12.30;7.57;;;;;;;9.87;44.21;99920.94;3170812;28;20447;-62
2023/04/08 00:08:10;;;;;;;11.70;6.95;;;;;;;9.87;43.96;99926.16;3171071;28;20083;-62
2023/04/08 00:09:42;;;;;;;12.90;7.40;;;;;;;9.87;44.07;99923.56;3170797;28;20452;-62
2023/04/08 00:11:14;;;;;;;12.77;8.02;;;;;;;9.87;44.17;99927.00;3170894;28;20043;-62
2023/04/08 00:12:48;;;;;;;14.27;7.68;;;;;;;9.87;44.32;99926.16;3169018;28;20393;-61
2023/04/08 00:14:21;;;;;;;12.77;7.20;;;;;;;9.82;44.11;99921.16;3160478;28;20055;-62
2023/04/08 00:15:52;;;;;;;9.90;7.30;;;;;;;9.80;44.19;99920.34;3162221;28;20523;-62
2023/04/08 00:17:24;;;;;;;21.63;7.78;;;;;;;9.78;44.54;99920.41;3170899;28;20071;-62
2023/04/08 00:18:56;;;;;;;14.48;9.10;;;;;;;9.71;44.81;99925.94;3170884;28;20056;-62
2023/04/08 00:20:26;;;;;;;17.63;8.48;;;;;;;9.62;44.66;99924.53;3170599;28;20119;-62
2023/04/08 00:21:58;;;;;;;11.57;7.18;;;;;;;9.54;44.97;99929.19;3160636;28;20093;-62
2023/04/08 00:23:30;;;;;;;13.13;6.65;;;;;;;9.49;45.08;99931.94;3170597;28;20106;-62
2023/04/08 00:25:05;;;;;;;13.45;7.38;;;;;;;9.44;45.51;99935.66;3170691;28;20489;-62
2023/04/08 00:26:36;;;;;;;11.30;7.45;;;;;;;9.37;45.38;99934.19;3170536;28;20588;-61
2023/04/08 00:28:08;;;;;;;12.73;7.95;;;;;;;9.31;45.51;99930.06;3165757;28;20044;-62
2023/04/08 00:29:41;;;;;;;15.27;8.30;;;;;;;9.26;45.90;99935.44;3168764;28;20047;-62
2023/04/08 00:31:13;;;;;;;15.15;8.23;;;;;;;9.21;45.82;99929.56;3169593;28;20453;-62
2023/04/08 00:32:45;;;;;;;12.75;7.97;;;;;;;9.21;46.12;99932.16;3170709;28;20428;-62
2023/04/08 00:34:17;;;;;;;17.15;8.50;;;;;;;9.20;46.17;99937.41;3170769;28;20047;-62
2023/04/08 00:35:49;;;;;;;16.17;8.23;;;;;;;9.16;46.27;99928.88;3170214;28;20377;-61
2023/04/08 00:37:22;;;;;;;14.13;9.43;;;;;;;9.14;46.27;99927.25;3170565;27;20098;-62
2023/04/08 00:38:53;;;;;;;16.98;8.43;;;;;;;9.11;46.49;99926.47;3170749;28;20044;-62
2023/04/08 00:40:25;;;;;;;19.08;9.35;;;;;;;9.08;46.59;99933.50;3170263;28;20074;-61
2023/04/08 00:41:57;;;;;;;14.48;8.95;;;;;;;9.07;46.79;99929.22;3170617;28;20050;-62
2023/04/08 00:43:29;;;;;;;17.08;8.65;;;;;;;9.07;46.80;99931.81;3166839;28;20078;-62
2023/04/08 00:45:02;;;;;;;15.15;8.40;;;;;;;9.03;46.92;99928.50;3169981;28;20044;-62
2023/04/08 00:46:36;;;;;;;13.50;8.10;;;;;;;8.97;47.42;99926.13;3170808;28;20139;-62
2023/04/08 00:48:08;;;;;;;11.57;7.80;;;;;;;8.94;47.28;99931.44;3169679;28;20048;-62
2023/04/08 00:49:40;;;;;;;21.05;8.90;;;;;;;8.92;47.71;99932.38;3170094;28;20459;-62
2023/04/08 00:51:12;;;;;;;16.83;9.80;;;;;;;8.88;47.69;99940.28;3170171;28;20055;-62
2023/04/08 00:52:44;;;;;;;13.10;8.00;;;;;;;8.89;47.69;99941.13;3169673;28;20444;-62
2023/04/08 00:54:16;;;;;;;14.82;9.50;;;;;;;8.90;47.98;99940.22;3170741;28;20051;-62
2023/04/08 00:55:48;;;;;;;22.15;10.15;;;;;;;8.93;48.03;99947.91;3170087;28;20058;-62
2023/04/08 00:57:20;;;;;;;17.40;9.82;;;;;;;8.94;48.12;99943.56;3170550;28;20052;-62
2023/04/08 00:58:54;;;;;;;14.18;8.98;;;;;;;8.91;48.48;99938.50;3169951;28;20056;-62
2023/04/08 01:00:29;;;;;;;16.35;9.20;;;;;;;8.92;48.56;99943.63;3169800;27;20048;-61
2023/04/08 01:02:10;;;;;;;16.40;9.45;;;;;;;8.84;49.38;99946.50;3169868;28;20527;-62
2023/04/08 01:03:52;;;;;;;15.43;9.70;;;;;;;8.77;49.95;99945.00;3170346;28;20059;-62
2023/04/08 01:05:30;;;;;;;17.42;10.27;;;;;;;8.74;49.99;99950.31;3170449;28;20056;-62
2023/04/08 01:07:11;;;;;;;21.00;10.55;;;;;;;8.71;50.40;99958.22;3170328;28;20064;-62
2023/04/08 01:08:44;;;;;;;17.73;10.32;;;;;;;8.68;50.92;99957.47;3160735;28;20508;-62
2023/04/08 01:10:20;;;;;;;17.10;11.10;;;;;;;8.66;51.21;99958.34;3169402;28;20075;-63
2023/04/08 01:11:52;;;;;;;17.85;10.10;;;;;;;8.69;51.44;99956.56;3170297;28;20058;-62
2023/04/08 01:13:28;;;;;;;19.65;10.57;;;;;;;7.99;51.99;99841.31;3162972;28;20055;-62
2023/04/08 01:15:03;;;;;;;16.60;10.02;;;;;;;8.68;52.17;99957.47;3169063;28;20047;-62
2023/04/08 01:16:41;;;;;;;16.52;10.15;;;;;;;8.64;52.44;99957.59;3169789;28;20073;-64
2023/04/08 01:18:16;;;;;;;18.27;10.52;;;;;;;8.62;52.66;99963.72;3170065;28;20151;-62
2023/04/08 01:19:48;;;;;;;18.40;10.65;;;;;;;8.63;52.78;99960.22;3170218;28;20097;-62
2023/04/08 01:21:22;;;;;;;15.82;10.27;;;;;;;8.65;52.78;99964.47;3164786;28;20061;-61
2023/04/08 01:23:06;;;;;;;18.92;10.85;;;;;;;8.67;53.04;99969.63;3167188;28;20051;-62
2023/04/08 01:24:43;;;;;;;19.70;11.07;;;;;;;8.66;53.32;99957.53;3170168;28;20051;-62
2023/04/08 01:26:22;;;;;;;17.65;10.73;;;;;;;8.62;53.50;99953.34;3169328;28;20056;-62
2023/04/08 01:27:57;;;;;;;19.40;11.45;;;;;;;7.99;53.82;99849.09;3165696;28;20052;-62
2023/04/08 01:29:29;;;;;;;21.02;11.35;;;;;;;8.68;54.11;99960.06;3168239;28;20043;-62
2023/04/08 01:31:03;;;;;;;19.52;11.75;;;;;;;8.64;54.44;99960.19;3169932;28;20043;-62
2023/04/08 01:32:36;;;;;;;21.52;11.70;;;;;;;8.63;54.74;99962.81;3169938;27;20054;-62
2023/04/08 01:34:10;;;;;;;20.30;11.30;;;;;;;8.60;54.84;99955.13;3169901;28;20039;-61
2023/04/08 01:35:42;;;;;;;17.92;11.55;;;;;;;8.57;55.24;99961.28;3169625;28;20144;-62
2023/04/08 01:37:16;;;;;;;18.83;11.25;;;;;;;8.50;55.74;99951.19;3164540;28;20070;-62
2023/04/08 01:38:48;;;;;;;;;;;;;;;8.43;55.38;99959.16;3164866;28;20047;-62
2023/04/08 01:40:20;;;;;;;20.52;10.57;;;;;;;8.39;55.79;99967.94;3169948;28;20332;-62
2023/04/08 01:41:56;;;;;;;18.90;11.73;;;;;;;8.37;56.10;99961.06;3169458;28;20048;-62
2023/04/08 01:43:27;;;;;;;19.95;11.30;;;;;;;8.32;56.80;99965.59;3167645;28;20440;-62
2023/04/08 01:45:00;;;;;;;18.67;11.38;;;;;;;8.30;56.73;99957.00;3166596;28;20043;-62
2023/04/08 01:46:33;;;;;;;19.45;11.52;;;;;;;8.00;57.04;99919.94;3169989;28;20536;-62
2023/04/08 01:48:05;;;;;;;20.38;11.45;;;;;;;8.22;56.89;99957.25;3169503;28;20118;-62
2023/04/08 01:49:37;;;;;;;18.93;11.00;;;;;;;8.25;57.08;99967.50;3169786;28;20051;-62
2023/04/08 01:51:09;;;;;;;21.52;11.70;;;;;;;8.29;57.33;99960.50;3169636;28;20415;-62
2023/04/08 01:52:44;;;;;;;18.05;11.85;;;;;;;8.35;57.15;99973.28;3169688;27;20751;-62
2023/04/08 01:54:16;;;;;;;18.10;11.10;;;;;;;8.37;57.50;99972.31;3169586;28;20055;-62
2023/04/08 01:55:55;;;;;;;17.27;11.02;;;;;;;8.39;57.39;99972.28;3170006;28;20052;-61
2023/04/08 01:57:33;;;;;;;20.70;11.82;;;;;;;8.39;57.69;99974.88;3164693;28;20104;-61
2023/04/08 01:59:09;;;;;;;22.63;11.88;;;;;;;8.33;57.90;99980.25;3164544;28;20056;-62
2023/04/08 02:00:42;;;;;;;18.58;10.98;;;;;;;8.31;58.28;99985.50;3164531;28;20554;-62
2023/04/08 02:02:15;;;;;;;20.20;12.13;;;;;;;8.26;58.58;99991.75;3164397;28;20332;-60
2023/04/08 02:03:50;;;;;;;21.45;12.80;;;;;;;8.21;58.73;99989.28;3164502;28;20120;-62
2023/04/08 02:05:22;;;;;;;25.92;12.50;;;;;;;8.16;59.03;99981.66;3163889;28;20536;-62
2023/04/08 02:06:56;;;;;;;20.85;12.75;;;;;;;8.14;59.27;99983.44;3164652;28;20086;-62
2023/04/08 02:08:27;;;;;;;21.23;12.48;;;;;;;8.11;59.59;99983.53;3164136;28;20051;-62
2023/04/08 02:09:59;;;;;;;22.00;12.40;;;;;;;8.06;59.49;99979.41;3164303;28;20587;-61
2023/04/08 02:11:30;;;;;;;24.13;13.23;;;;;;;8.02;59.70;99985.59;3164471;28;20071;-62
2023/04/08 02:13:03;;;;;;;29.38;13.43;;;;;;;7.98;59.75;99977.88;3160295;28;20048;-61
2023/04/08 02:14:34;;;;;;;24.98;13.23;;;;;;;7.93;60.26;99979.78;3158964;28;20468;-62
2023/04/08 02:16:14;;;;;;;26.13;13.65;;;;;;;7.92;60.63;99983.25;3163385;28;20051;-61
2023/04/08 02:17:49;;;;;;;24.90;13.77;;;;;;;7.87;60.97;99986.94;3164338;28;20047;-62
2023/04/08 02:19:28;;;;;;;23.50;13.23;;;;;;;7.84;61.13;99987.88;3164495;28;20125;-61
2023/04/08 02:21:09;;;;;;;28.95;13.90;;;;;;;7.77;61.20;99967.34;3163828;28;20051;-60
2023/04/08 02:22:47;;;;;;;24.50;14.00;;;;;;;7.71;61.43;99968.38;3164258;28;20870;-60
2023/04/08 02:24:21;;;;;;;22.40;13.30;;;;;;;7.76;61.90;99995.03;3164091;28;20097;-60
2023/04/08 02:25:56;;;;;;;23.13;13.38;;;;;;;7.71;62.33;99995.16;3164357;28;20060;-60
2023/04/08 02:27:29;;;;;;;26.38;12.73;;;;;;;7.65;62.95;99990.16;3164038;28;20335;-60
2023/04/08 02:29:04;;;;;;;;;;;;;;;7.54;63.29;99994.78;3158329;28;20575;-60
2023/04/08 02:30:36;;;;;;;;;;;;;;;7.46;63.55;99994.19;3164890;28;20461;-61
2023/04/08 02:32:11;;;;;;;23.75;13.38;;;;;;;7.40;64.07;99997.81;3164287;28;19946;-60
2023/04/08 02:33:44;;;;;;;23.75;13.38;;;;;;;7.43;64.13;99983.94;3164002;28;20066;-61
2023/04/08 02:35:18;;;;;;;25.38;13.52;;;;;;;7.46;64.46;99983.84;3159998;28;20071;-61
2023/04/08 02:36:50;;;;;;;22.98;13.65;;;;;;;7.47;65.00;99990.69;3155529;28;20047;-61
2023/04/08 02:38:22;;;;;;;23.58;13.80;;;;;;;7.48;64.95;99988.09;3164507;28;20123;-61
2023/04/08 02:39:54;;;;;;;25.13;14.45;;;;;;;7.48;65.00;99985.50;3164301;28;20058;-61
2023/04/08 02:41:29;;;;;;;23.85;14.80;;;;;;;7.48;64.90;99988.09;3163411;28;20047;-61
2023/04/08 02:43:01;;;;;;;28.00;15.18;;;;;;;7.51;65.26;99992.31;3161282;28;20044;-61
2023/04/08 02:44:34;;;;;;;25.13;13.52;;;;;;;7.53;65.11;99996.53;3164075;28;20128;-61
2023/04/08 02:46:06;;;;;;;24.85;13.52;;;;;;;7.53;65.06;99993.97;3164090;28;20651;-61
2023/04/08 02:47:38;;;;;;;24.73;13.77;;;;;;;7.50;65.48;99988.88;3164120;28;20394;-61
2023/04/08 02:49:10;;;;;;;28.30;14.00;;;;;;;7.47;65.74;99995.88;3163994;28;20051;-61
2023/04/08 02:50:42;;;;;;;22.77;14.02;;;;;;;7.32;65.85;99965.25;3164118;28;20149;-60
2023/04/08 02:52:14;;;;;;;27.52;14.45;;;;;;;7.44;66.13;99989.03;3163743;28;20066;-61
2023/04/08 02:53:45;;;;;;;23.65;13.98;;;;;;;7.43;66.35;99986.53;3164923;28;20509;-62
2023/04/08 02:55:17;;;;;;;24.05;14.18;;;;;;;7.45;66.35;99988.19;3166414;28;20288;-61
2023/04/08 02:56:49;;;;;;;23.13;14.13;;;;;;;7.52;66.44;99996.59;3166517;28;20055;-61
2023/04/08 02:58:21;;;;;;;30.83;15.20;;;;;;;7.56;66.42;99997.34;3156602;28;20048;-61
2023/04/08 02:59:53;;;;;;;27.70;14.65;;;;;;;7.61;66.19;100004.09;3159821;28;20553;-60
2023/04/08 03:01:25;;;;;;;26.25;15.73;;;;;;;7.65;66.28;99999.66;3166873;28;20050;-61
2023/04/08 03:02:57;;;;;;;28.27;15.40;;;;;;;7.70;66.31;100003.00;3166403;28;20501;-60
2023/04/08 03:04:28;;;;;;;24.75;14.32;;;;;;;7.68;66.43;100003.00;3166467;28;20097;-61
2023/04/08 03:06:00;;;;;;;27.13;14.38;;;;;;;7.67;66.41;100011.69;3166444;28;20048;-61
2023/04/08 03:07:32;;;;;;;26.58;15.38;;;;;;;7.68;66.64;100005.59;3166469;28;20433;-61
2023/04/08 03:09:04;;;;;;;24.17;14.32;;;;;;;7.69;66.74;100016.81;3166540;28;20070;-61
2023/04/08 03:10:35;;;;;;;32.03;16.00;;;;;;;7.64;66.83;100016.97;3166410;28;20472;-61
2023/04/08 03:12:07;;;;;;;25.00;14.98;;;;;;;7.62;66.76;100012.72;3166112;28;20051;-61
2023/04/08 03:13:39;;;;;;;28.15;15.50;;;;;;;7.63;66.90;100014.41;3157170;28;20044;-61
2023/04/08 03:15:12;;;;;;;26.25;15.27;;;;;;;7.70;67.09;100023.72;3153876;28;20434;-62
2023/04/08 03:16:44;;;;;;;25.48;15.13;;;;;;;7.71;67.04;100012.44;3165764;28;20055;-63
2023/04/08 03:18:16;;;;;;;27.38;14.88;;;;;;;7.37;67.29;99953.84;3166583;28;20062;-62
2023/04/08 03:19:48;;;;;;;28.13;14.77;;;;;;;7.71;67.21;100002.06;3166330;28;20572;-61
2023/04/08 03:21:20;;;;;;;25.23;14.73;;;;;;;7.78;67.27;100015.69;3166053;28;20051;-61
2023/04/08 03:22:52;;;;;;;28.63;15.35;;;;;;;7.80;67.36;100016.50;3165377;28;20044;-61
2023/04/08 03:24:24;;;;;;;25.55;15.80;;;;;;;7.82;67.51;100027.69;3166442;28;20108;-62
2023/04/08 03:25:56;;;;;;;27.00;14.80;;;;;;;7.85;67.37;100025.00;3166406;28;20451;-62
2023/04/08 03:27:28;;;;;;;24.35;14.90;;;;;;;7.82;67.57;100018.16;3166260;28;20524;-62
2023/04/08 03:29:00;;;;;;;27.02;16.10;;;;;;;7.77;67.75;100012.25;3160090;28;20051;-62
2023/04/08 03:30:33;;;;;;;26.63;15.60;;;;;;;7.73;68.18;100013.25;3166391;28;20083;-63
2023/04/08 03:32:05;;;;;;;26.48;15.48;;;;;;;7.68;68.03;100007.34;3166030;28;20056;-62
2023/04/08 03:33:37;;;;;;;24.70;15.80;;;;;;;7.70;68.18;100010.75;3165880;28;20058;-62
2023/04/08 03:35:10;;;;;;;29.52;16.02;;;;;;;7.69;68.27;100017.69;3156168;28;20456;-62
2023/04/08 03:36:41;;;;;;;25.58;15.43;;;;;;;7.68;68.07;100017.72;3166400;28;20052;-62
2023/04/08 03:38:13;;;;;;;29.45;16.17;;;;;;;7.65;68.28;100016.06;3161882;28;20044;-62
2023/04/08 03:39:45;;;;;;;28.67;16.23;;;;;;;7.62;68.39;100016.16;3165835;28;20115;-62
2023/04/08 03:41:17;;;;;;;28.02;15.23;;;;;;;7.64;68.54;100018.72;3165950;28;20589;-62
2023/04/08 03:42:49;;;;;;;28.98;15.43;;;;;;;7.63;68.63;100022.19;3164060;28;20105;-62
2023/04/08 03:44:19;;;;;;;26.95;15.77;;;;;;;7.62;68.62;100013.56;3165521;28;20097;-62
2023/04/08 03:45:53;;;;;;;25.25;16.45;;;;;;;7.65;68.75;100017.81;3166319;28;20055;-61
2023/04/08 03:47:25;;;;;;;26.85;15.70;;;;;;;7.61;68.63;100014.47;3166189;28;20113;-61
2023/04/08 03:48:57;;;;;;;28.17;15.60;;;;;;;7.57;69.04;100023.22;3166114;28;20172;-63
2023/04/08 03:50:29;;;;;;;27.08;15.77;;;;;;;7.54;69.24;100018.13;3166082;28;20579;-65
2023/04/08 03:52:25;;;;;;;30.27;15.38;;;;;;;7.50;69.04;100019.13;3166165;28;20090;-62
2023/04/08 03:53:57;;;;;;;29.63;15.65;;;;;;;7.32;69.42;100001.50;3155390;28;20051;-63
2023/04/08 03:55:29;;;;;;;26.10;15.82;;;;;;;7.47;69.31;100021.78;3170745;28;20436;-64
2023/04/08 03:57:01;;;;;;;28.02;16.38;;;;;;;7.45;69.61;100028.75;3170654;28;20058;-63
2023/04/08 03:58:33;;;;;;;27.33;16.40;;;;;;;7.50;69.52;100022.56;3162914;28;20059;-62
2023/04/08 04:00:06;;;;;;;27.67;15.77;;;;;;;7.53;69.52;100029.41;3166627;28;20056;-62
2023/04/08 04:01:38;;;;;;;27.85;15.93;;;;;;;7.51;69.72;100038.94;3171168;28;20531;-62
2023/04/08 04:03:11;;;;;;;28.83;16.02;;;;;;;7.48;69.75;100033.84;3170614;28;20425;-62
2023/04/08 04:04:43;;;;;;;;;;;;;;;7.41;69.66;100035.78;3171346;28;20079;-62
2023/04/08 04:06:15;;;;;;;27.00;14.65;;;;;;;7.38;70.01;100040.19;3170056;28;19928;-62
2023/04/08 04:07:47;;;;;;;28.02;15.90;;;;;;;7.42;69.92;100039.22;3170950;28;20055;-62
2023/04/08 04:09:19;;;;;;;29.45;16.73;;;;;;;7.44;70.08;100035.69;3170609;28;20101;-62
2023/04/08 04:10:51;;;;;;;26.38;15.50;;;;;;;7.49;70.25;100036.41;3171125;28;20083;-62
2023/04/08 04:12:23;;;;;;;29.50;16.42;;;;;;;7.54;70.14;100038.84;3170619;28;20205;-63
2023/04/08 04:13:55;;;;;;;27.95;15.90;;;;;;;7.53;70.20;100032.81;3160854;28;20063;-62
2023/04/08 04:15:27;;;;;;;28.27;17.15;;;;;;;7.53;70.16;100040.59;3169980;28;20176;-62
2023/04/08 04:16:59;;;;;;;30.23;16.90;;;;;;;7.52;70.19;100045.84;3171184;28;20051;-62
2023/04/08 04:18:31;;;;;;;31.33;17.30;;;;;;;7.52;70.28;100048.44;3158568;28;20052;-62
2023/04/08 04:20:04;;;;;;;30.98;16.98;;;;;;;7.53;70.20;100044.94;3169732;28;20101;-63
2023/04/08 04:21:36;;;;;;;;;;;;;;;7.46;70.27;100048.63;3164126;28;20055;-61
2023/04/08 04:23:08;;;;;;;31.30;17.35;;;;;;;7.42;70.53;100045.22;3168452;28;19927;-61
2023/04/08 04:24:39;;;;;;;36.70;16.05;;;;;;;7.45;70.33;100049.50;3170794;28;20531;-61
2023/04/08 04:26:11;;;;;;;29.40;16.15;;;;;;;7.19;70.57;100011.38;3170573;28;20047;-60
2023/04/08 04:27:43;;;;;;;29.77;16.73;;;;;;;7.52;70.73;100049.28;3169113;28;20429;-61
2023/04/08 04:29:15;;;;;;;26.73;17.30;;;;;;;7.55;70.89;100048.34;3165339;28;20056;-61
2023/04/08 04:30:47;;;;;;;31.17;16.77;;;;;;;7.59;70.79;100047.34;3170681;28;20062;-61
2023/04/08 04:32:20;;;;;;;29.90;16.10;;;;;;;7.63;70.93;100036.03;3170610;28;20044;-62
2023/04/08 04:33:52;;;;;;;31.60;16.13;;;;;;;7.26;71.06;99974.88;3170408;28;20052;-61
2023/04/08 04:35:24;;;;;;;28.90;16.33;;;;;;;7.70;71.15;100041.88;3165631;28;20524;-62
2023/04/08 04:36:56;;;;;;;29.33;16.80;;;;;;;7.71;70.87;100034.03;3162429;28;20500;-62
2023/04/08 04:38:28;;;;;;;29.05;16.15;;;;;;;7.77;70.73;100043.38;3170346;28;20074;-62
2023/04/08 04:40:00;;;;;;;29.80;15.70;;;;;;;7.79;70.69;100041.59;3170457;28;20127;-61
2023/04/08 04:41:31;;;;;;;28.48;16.08;;;;;;;7.81;70.57;100047.59;3170696;28;20056;-61
2023/04/08 04:43:03;;;;;;;31.52;16.98;;;;;;;7.81;70.61;100039.81;3167304;28;20059;-61
2023/04/08 04:44:35;;;;;;;28.50;16.00;;;;;;;7.82;70.39;100051.03;3170494;28;20055;-61
2023/04/08 04:46:07;;;;;;;32.95;17.10;;;;;;;7.76;70.52;100044.28;3170257;28;20058;-61
2023/04/08 04:47:41;;;;;;;28.15;16.83;;;;;;;7.73;70.42;100049.56;3170856;28;20444;-61
2023/04/08 04:49:11;;;;;;;28.95;16.55;;;;;;;7.70;70.40;100049.66;3167187;28;20477;-61
2023/04/08 04:50:43;;;;;;;33.45;19.20;;;;;;;7.72;71.05;100053.06;3169233;28;20059;-61
2023/04/08 04:52:15;;;;;;;28.42;16.23;;;;;;;7.73;71.04;100053.00;3169993;28;20074;-61
2023/04/08 04:53:48;;;;;;;32.20;16.83;;;;;;;7.75;70.79;100051.22;3170408;28;20051;-61
2023/04/08 04:55:21;;;;;;;31.50;17.83;;;;;;;7.76;71.06;100046.88;3170356;28;20531;-61
2023/04/08 04:56:53;;;;;;;28.35;16.25;;;;;;;7.77;71.14;100045.97;3170498;28;20801;-61
2023/04/08 04:58:24;;;;;;;35.28;18.65;;;;;;;7.81;71.18;100045.00;3163166;27;20101;-62
2023/04/08 04:59:56;;;;;;;32.88;17.92;;;;;;;7.82;71.34;100048.44;3164256;28;20052;-61
2023/04/08 05:01:27;;;;;;;35.55;18.27;;;;;;;7.87;71.32;100051.75;3170172;28;20055;-61
2023/04/08 05:03:01;;;;;;;33.03;18.95;;;;;;;7.90;71.39;100049.06;3170110;28;20046;-62
2023/04/08 05:04:32;;;;;;;34.53;19.02;;;;;;;7.91;71.24;100049.00;3170586;28;20130;-61
2023/04/08 05:06:04;;;;;;;33.20;18.20;;;;;;;7.94;71.30;100051.50;3170190;28;20051;-61
2023/04/08 05:07:37;;;;;;;36.58;19.00;;;;;;;7.94;71.41;100051.50;3170260;28;20062;-60
2023/04/08 05:09:09;;;;;;;32.40;18.05;;;;;;;8.00;71.36;100055.66;3170121;28;20066;-61
2023/04/08 05:10:41;;;;;;;32.92;18.08;;;;;;;8.01;71.38;100049.56;3170275;28;20058;-60
2023/04/08 05:12:13;;;;;;;35.63;20.13;;;;;;;7.98;71.19;100050.50;3170082;28;20496;-61
2023/04/08 05:13:45;;;;;;;40.67;20.05;;;;;;;7.96;71.47;100060.09;3160382;28;20048;-61
2023/04/08 05:15:17;;;;;;;38.10;20.77;;;;;;;7.93;71.35;100060.19;3168613;28;20444;-60
2023/04/08 05:16:49;;;;;;;36.88;19.67;;;;;;;7.90;71.55;100059.44;3169822;28;20054;-61
2023/04/08 05:18:21;;;;;;;38.15;19.52;;;;;;;7.86;71.93;100068.19;3169575;28;20389;-61
2023/04/08 05:19:53;;;;;;;40.55;21.23;;;;;;;7.81;72.03;100062.28;3170076;28;20048;-61
2023/04/08 05:21:26;;;;;;;45.25;21.45;;;;;;;7.83;72.22;100070.88;3164911;28;20044;-61
2023/04/08 05:22:58;;;;;;;40.95;22.55;;;;;;;7.88;72.04;100072.44;3170261;28;20056;-62
2023/04/08 05:24:29;;;;;;;41.85;22.35;;;;;;;7.90;72.06;100065.47;3170041;28;20100;-61
2023/04/08 05:26:01;;;;;;;48.65;23.60;;;;;;;7.90;72.05;100067.22;3168851;28;20052;-61
2023/04/08 05:27:34;;;;;;;40.55;22.77;;;;;;;7.88;72.21;100076.78;3170058;28;20047;-61
2023/04/08 05:29:06;;;;;;;43.67;22.73;;;;;;;7.84;72.32;100073.44;3169956;28;20413;-61
2023/04/08 05:30:38;;;;;;;43.13;22.63;;;;;;;7.87;72.26;100075.09;3169201;28;20048;-61
2023/04/08 05:32:10;;;;;;;38.80;20.88;;;;;;;7.87;72.39;100075.94;3169840;28;20112;-61
2023/04/08 05:33:43;;;;;;;39.55;21.13;;;;;;;7.89;72.49;100075.88;3169861;28;20488;-61
2023/04/08 05:35:15;;;;;;;44.60;22.52;;;;;;;7.87;72.45;100078.53;3169622;28;20059;-61
2023/04/08 05:36:45;;;;;;;41.90;22.42;;;;;;;7.87;72.40;100075.94;3169980;28;20587;-62
2023/04/08 05:38:17;;;;;;;45.67;23.10;;;;;;;7.91;72.46;100084.47;3169945;28;20055;-62
2023/04/08 05:39:49;;;;;;;39.78;22.77;;;;;;;7.94;72.26;100077.44;3166738;28;20104;-62
2023/04/08 05:41:21;;;;;;;50.42;23.13;;;;;;;7.85;72.32;100054.38;3169700;28;20053;-61
2023/04/08 05:42:53;;;;;;;43.08;22.63;;;;;;;7.96;72.35;100078.25;3166420;28;20105;-62
2023/04/08 05:44:25;;;;;;;43.40;23.92;;;;;;;7.93;72.45;100073.16;3162016;28;20048;-61
2023/04/08 05:45:56;;;;;;;44.97;23.80;;;;;;;7.93;72.73;100080.94;3167470;28;20063;-64
2023/04/08 05:47:28;;;;;;;45.72;24.17;;;;;;;7.91;72.98;100081.88;3169480;28;20101;-61
2023/04/08 05:49:02;;;;;;;43.15;22.17;;;;;;;7.90;72.88;100078.44;3169823;28;20051;-61
2023/04/08 05:50:35;;;;;;;48.38;23.40;;;;;;;7.92;73.23;100084.41;3169844;28;20432;-66
2023/04/08 05:52:07;;;;;;;42.42;22.58;;;;;;;7.92;73.28;100081.81;3169553;28;20060;-65
2023/04/08 05:53:38;;;;;;;52.58;24.55;;;;;;;7.98;73.15;100083.38;3169676;28;20454;-63
2023/04/08 05:55:11;;;;;;;44.20;23.40;;;;;;;8.00;73.36;100081.59;3169601;28;20077;-62
2023/04/08 05:56:45;;;;;;;48.22;24.20;;;;;;;8.02;73.54;100081.56;3169314;28;20070;-63
2023/04/08 05:58:16;;;;;;;43.67;22.75;;;;;;;8.08;73.23;100084.81;3167866;28;20048;-61
2023/04/08 05:59:48;;;;;;;45.40;23.27;;;;;;;8.17;73.13;100081.09;3169783;28;20055;-64
2023/04/08 06:01:21;;;;;;;57.20;25.60;;;;;;;8.19;73.04;100077.56;3169580;28;20648;-65
2023/04/08 06:02:53;;;;;;;42.70;22.27;;;;;;;8.13;73.00;100074.28;3169925;28;20135;-63
2023/04/08 06:04:26;;;;;;;45.97;23.65;;;;;;;8.15;72.77;100078.53;3169516;28;20059;-62
2023/04/08 06:05:58;;;;;;;47.00;24.08;;;;;;;8.14;72.89;100083.78;3169528;28;20055;-64
2023/04/08 06:07:30;;;;;;;44.53;24.00;;;;;;;8.15;73.05;100081.13;3169195;28;20055;-66
2023/04/08 06:09:02;;;;;;;48.25;24.73;;;;;;;8.17;72.94;100078.50;3169945;28;20138;-65
2023/04/08 06:10:33;;;;;;;42.85;23.73;;;;;;;8.22;73.05;100076.56;3169070;28;20414;-62
2023/04/08 06:12:05;;;;;;;45.25;23.23;;;;;;;8.29;72.74;100077.25;3169538;28;20052;-64
2023/04/08 06:13:37;;;;;;;45.83;23.50;;;;;;;8.35;72.90;100075.31;3167709;28;20048;-64
2023/04/08 06:15:10;;;;;;;41.80;22.90;;;;;;;8.04;72.71;100018.34;3169498;28;20477;-62
2023/04/08 06:16:45;;;;;;;48.25;25.40;;;;;;;8.53;72.44;100076.50;3169399;28;20044;-66
2023/04/08 06:18:17;;;;;;;65.63;34.15;;;;;;;8.64;72.40;100082.19;3169681;28;20540;-66
2023/04/08 06:19:50;;;;;;;55.22;26.85;;;;;;;8.75;71.84;100078.38;3169311;28;20040;-63
2023/04/08 06:21:22;;;;;;;44.55;23.98;;;;;;;8.86;71.90;100086.69;3164887;28;20051;-66
2023/04/08 06:22:54;;;;;;;47.35;23.83;;;;;;;8.94;71.31;100087.28;3164761;28;20080;-62
2023/04/08 06:24:28;;;;;;;38.10;22.48;;;;;;;8.70;71.09;100036.19;3168628;28;20048;-69
2023/04/08 06:26:00;;;;;;;51.35;23.13;;;;;;;9.10;70.68;100087.59;3169360;28;20118;-66
2023/04/08 06:27:31;;;;;;;48.63;24.42;;;;;;;9.11;70.37;100090.16;3170061;28;20051;-67
2023/04/08 06:29:03;;;;;;;54.33;28.77;;;;;;;9.09;70.55;100078.94;3164443;28;20051;-68
2023/04/08 06:30:35;;;;;;;66.20;33.38;;;;;;;9.22;70.12;100084.56;3172658;28;20079;-67
2023/04/08 06:32:07;;;;;;;43.83;21.52;;;;;;;9.34;70.20;100086.72;3172515;28;20055;-68
2023/04/08 06:33:39;;;;;;;53.25;22.65;;;;;;;9.43;69.86;100082.09;3171815;28;20047;-69
2023/04/08 06:35:12;;;;;;;42.90;21.35;;;;;;;9.50;69.46;100078.41;3163316;28;20528;-65
2023/04/08 06:36:44;;;;;;;42.45;21.05;;;;;;;9.56;69.14;100073.81;3172205;28;20050;-68
2023/04/08 06:38:16;;;;;;;44.05;21.35;;;;;;;9.67;68.98;100075.16;3171834;28;20535;-65
2023/04/08 06:39:47;;;;;;;44.70;22.90;;;;;;;9.78;68.52;100078.22;3171299;28;20043;-68
2023/04/08 06:41:19;;;;;;;40.03;22.52;;;;;;;9.87;68.38;100077.03;3160233;28;20055;-68
2023/04/08 06:42:52;;;;;;;39.05;20.92;;;;;;;9.93;68.07;100080.22;3169678;28;20460;-67
2023/04/08 06:44:24;;;;;;;43.17;20.90;;;;;;;9.91;67.61;100078.59;3171899;28;20531;-66
2023/04/08 06:45:56;;;;;;;37.63;20.48;;;;;;;9.94;67.83;100083.72;3159288;28;20113;-64
2023/04/08 06:47:28;;;;;;;44.83;21.63;;;;;;;9.99;67.22;100082.59;3170997;28;20052;-64
2023/04/08 06:49:00;;;;;;;41.63;20.92;;;;;;;10.06;67.02;100078.03;3171710;28;20715;-64
2023/04/08 06:50:33;;;;;;;38.80;21.20;;;;;;;10.13;66.83;100082.06;3171837;28;20058;-65
2023/04/08 06:52:06;;;;;;;36.20;20.60;;;;;;;10.18;66.57;100087.13;3171267;28;20617;-69
2023/04/08 06:53:38;;;;;;;43.42;21.33;;;;;;;10.22;65.86;100073.06;3172093;28;20048;-65
2023/04/08 06:55:10;;;;;;;39.17;21.48;;;;;;;10.34;65.76;100076.97;3171595;28;20039;-65
2023/04/08 06:56:42;;;;;;;41.72;19.88;;;;;;;10.41;65.46;100074.06;3172000;28;20522;-67
2023/04/08 06:58:14;;;;;;;44.45;23.25;;;;;;;10.46;65.23;100076.47;3165839;28;20067;-67
2023/04/08 06:59:46;;;;;;;39.60;20.83;;;;;;;10.50;65.20;100070.25;3169912;28;20055;-61
2023/04/08 07:01:18;;;;;;;43.88;20.63;;;;;;;10.66;64.82;100068.69;3167238;28;20584;-62
2023/04/08 07:02:50;;;;;;;38.63;20.10;;;;;;;10.90;64.46;100077.25;3159384;28;20043;-61
2023/04/08 07:04:22;;;;;;;36.70;18.45;;;;;;;11.08;63.81;100075.63;3162002;28;20093;-60
2023/04/08 07:05:55;;;;;;;36.10;18.65;;;;;;;11.23;63.53;100055.03;3171590;28;20055;-62
2023/04/08 07:07:27;;;;;;;37.00;20.45;;;;;;;11.44;62.45;100074.09;3171875;28;20162;-62
2023/04/08 07:08:59;;;;;;;36.97;19.33;;;;;;;11.52;61.61;100079.81;3171648;28;20524;-63